Time;durP1;ratioP1;P1;durP2;ratioP2;P2;SDS_P1;SDS_P2;PMS_P1;PMS_P2;Temp;Humidity;BMP_temperature;BMP_pressure;BME280_temperature;BME280_humidity;BME280_pressure;Samples;Min_cycle;Max_cycle;Signal;HPM_P1;HPM_P2
2023/06/23 00:01:21;;;;;;;1999.90;999.90;;;19.00;99.90;;;;;;4986746;28;20436;-71
2023/06/23 00:03:48;;;;;;;1999.90;999.90;;;19.00;99.90;;;;;;4991476;28;20471;-70
2023/06/23 00:06:16;;;;;;;1999.90;999.90;;;19.00;99.90;;;;;;4993709;28;20813;-71
2023/06/23 00:08:42;;;;;;;1999.90;999.90;;;19.00;99.90;;;;;;4989333;28;20438;-71
2023/06/23 00:11:11;;;;;;;1999.90;999.90;;;19.00;99.90;;;;;;4993539;28;20426;-71
2023/06/23 00:13:38;;;;;;;1999.90;999.90;;;19.00;99.90;;;;;;4993201;28;20426;-71
2023/06/23 00:16:06;;;;;;;1999.90;999.90;;;19.10;99.90;;;;;;4987997;28;20481;-71
2023/06/23 00:18:33;;;;;;;1999.90;999.90;;;19.20;99.90;;;;;;4988759;28;20446;-71
2023/06/23 00:21:00;;;;;;;1999.90;999.90;;;19.20;99.90;;;;;;4993258;28;20515;-71
2023/06/23 00:23:29;;;;;;;1999.90;999.90;;;19.20;99.90;;;;;;4993562;28;20423;-72
2023/06/23 00:25:56;;;;;;;1999.90;999.90;;;19.10;99.90;;;;;;4989130;28;20454;-72
2023/06/23 00:28:24;;;;;;;1999.90;999.90;;;19.00;99.90;;;;;;4990106;28;20426;-71
2023/06/23 00:30:51;;;;;;;1999.90;999.90;;;19.20;99.90;;;;;;4979994;28;20440;-71
2023/06/23 00:33:18;;;;;;;1999.90;999.90;;;19.10;99.90;;;;;;4991585;28;20473;-71
2023/06/23 00:35:44;;;;;;;1999.90;999.90;;;18.90;99.90;;;;;;4991369;28;20425;-71
2023/06/23 00:38:11;;;;;;;1999.90;999.90;;;18.90;99.90;;;;;;4985905;28;20480;-71
2023/06/23 00:40:38;;;;;;;1999.90;999.90;;;19.00;99.90;;;;;;4982201;28;20447;-72
2023/06/23 00:43:04;;;;;;;1999.90;999.90;;;18.90;99.90;;;;;;4981745;28;20458;-71
2023/06/23 00:45:32;;;;;;;1999.90;999.90;;;18.90;99.90;;;;;;4992224;28;20473;-71
2023/06/23 00:48:02;;;;;;;1999.90;999.90;;;19.00;99.90;;;;;;4992711;28;20480;-72
2023/06/23 00:50:29;;;;;;;1999.90;999.90;;;19.00;99.90;;;;;;4992506;28;20949;-71
2023/06/23 00:52:56;;;;;;;1999.90;999.90;;;18.90;99.90;;;;;;4992543;28;20893;-70
2023/06/23 00:55:24;;;;;;;1999.90;999.90;;;18.80;99.90;;;;;;4987157;28;20922;-72
2023/06/23 00:57:52;;;;;;;1999.90;999.90;;;18.80;99.90;;;;;;4992482;28;20476;-71
2023/06/23 01:00:20;;;;;;;1999.90;999.90;;;18.80;99.90;;;;;;4988127;28;20457;-71
2023/06/23 01:02:49;;;;;;;1999.90;999.90;;;18.70;99.90;;;;;;4992548;28;20423;-71
2023/06/23 01:05:17;;;;;;;1999.90;999.90;;;18.70;99.90;;;;;;4992774;28;20819;-71
2023/06/23 01:07:52;;;;;;;1999.90;999.90;;;18.60;99.90;;;;;;4992415;28;20493;-69
2023/06/23 01:10:26;;;;;;;1999.90;999.90;;;18.60;99.90;;;;;;4969819;28;20462;-71
2023/06/23 01:13:02;;;;;;;1999.90;999.90;;;18.70;99.90;;;;;;4991333;28;20974;-71
2023/06/23 01:15:34;;;;;;;1999.90;999.90;;;18.70;99.90;;;;;;4992991;28;20596;-71
2023/06/23 01:18:10;;;;;;;1999.90;999.90;;;18.60;99.90;;;;;;4988062;28;20446;-71
2023/06/23 01:20:41;;;;;;;1999.90;999.90;;;18.60;99.90;;;;;;4992473;28;20410;-71
2023/06/23 01:23:20;;;;;;;1999.90;999.90;;;18.60;99.90;;;;;;4991513;28;20426;-71
2023/06/23 01:25:54;;;;;;;1999.90;999.90;;;18.60;99.90;;;;;;4985831;28;20472;-72
2023/06/23 01:28:44;;;;;;;1999.90;999.90;;;18.60;99.90;;;;;;4992606;28;20480;-71
2023/06/23 01:31:14;;;;;;;1999.90;999.90;;;18.60;99.90;;;;;;4991429;28;20965;-71
2023/06/23 01:33:48;;;;;;;1999.90;999.90;;;18.70;99.90;;;;;;4988426;28;20424;-71
2023/06/23 01:36:20;;;;;;;1999.90;999.90;;;18.60;99.90;;;;;;4970411;28;20967;-73
2023/06/23 01:38:52;;;;;;;1999.90;999.90;;;18.60;99.90;;;;;;4990476;28;20431;-71
2023/06/23 01:41:23;;;;;;;1999.90;999.90;;;18.50;99.90;;;;;;4978813;28;20433;-68
2023/06/23 01:43:55;;;;;;;1999.90;999.90;;;18.40;99.90;;;;;;4992953;28;20457;-71
2023/06/23 01:46:26;;;;;;;1999.90;999.90;;;18.40;99.90;;;;;;4992787;28;20481;-71
2023/06/23 01:48:57;;;;;;;1999.90;999.90;;;18.50;99.90;;;;;;4992537;28;20407;-70
2023/06/23 01:51:26;;;;;;;1999.90;999.90;;;18.50;99.90;;;;;;4986903;28;20844;-72
2023/06/23 01:53:55;;;;;;;1999.90;999.90;;;18.60;99.90;;;;;;4984070;28;20521;-71
2023/06/23 01:56:24;;;;;;;1999.90;999.90;;;18.60;99.90;;;;;;4982110;28;20530;-71
2023/06/23 01:58:54;;;;;;;1999.90;999.90;;;18.60;99.90;;;;;;4991693;28;20488;-71
2023/06/23 02:01:23;;;;;;;1999.90;999.90;;;19.00;99.90;;;;;;4991815;28;20426;-71
2023/06/23 02:03:51;;;;;;;1999.90;999.90;;;18.60;99.90;;;;;;4990857;28;20453;-69
2023/06/23 02:06:18;;;;;;;1999.90;999.90;;;18.70;99.90;;;;;;4991636;28;20778;-71
2023/06/23 02:08:45;;;;;;;1999.90;999.90;;;18.70;99.90;;;;;;4982674;28;20434;-72
2023/06/23 02:11:14;;;;;;;1999.90;999.90;;;18.60;99.90;;;;;;4991109;28;20496;-70
2023/06/23 02:13:42;;;;;;;1999.90;999.90;;;18.60;99.90;;;;;;4991273;28;20473;-71
2023/06/23 02:16:11;;;;;;;1999.90;999.90;;;18.70;99.90;;;;;;4991580;28;20551;-71
2023/06/23 02:18:40;;;;;;;1999.90;999.90;;;18.80;99.90;;;;;;4991360;28;20441;-72
2023/06/23 02:21:09;;;;;;;1999.90;999.90;;;18.80;99.90;;;;;;4988515;28;20467;-71
2023/06/23 02:23:36;;;;;;;1999.90;999.90;;;18.80;99.90;;;;;;4985762;28;20434;-71
2023/06/23 02:26:03;;;;;;;1999.90;999.90;;;18.80;99.90;;;;;;4985624;28;20453;-71
2023/06/23 02:28:30;;;;;;;1999.90;999.90;;;18.80;99.90;;;;;;4991095;28;20452;-72
2023/06/23 02:30:58;;;;;;;1999.90;999.90;;;18.80;99.90;;;;;;4990712;28;20443;-71
2023/06/23 02:33:26;;;;;;;1999.90;999.90;;;18.80;99.90;;;;;;4990707;28;20442;-70
2023/06/23 02:35:55;;;;;;;1999.90;999.90;;;18.70;99.90;;;;;;4986498;28;20439;-70
2023/06/23 02:38:26;;;;;;;1999.90;999.90;;;18.60;99.90;;;;;;4991200;28;20427;-71
2023/06/23 02:40:54;;;;;;;1999.90;999.90;;;18.70;99.90;;;;;;4990941;28;20758;-71
2023/06/23 02:43:27;;;;;;;1999.90;999.90;;;18.70;99.90;;;;;;4985192;28;20481;-71
2023/06/23 02:45:58;;;;;;;1999.90;999.90;;;18.60;99.90;;;;;;4990383;28;20418;-71
2023/06/23 02:48:33;;;;;;;1999.90;999.90;;;18.70;99.90;;;;;;4991140;28;20461;-70
2023/06/23 02:51:01;;;;;;;1999.90;999.90;;;18.70;99.90;;;;;;4981394;28;20440;-71
2023/06/23 02:53:31;;;;;;;1999.90;999.90;;;18.70;99.90;;;;;;4990640;28;20488;-71
2023/06/23 02:56:04;;;;;;;1999.90;999.90;;;18.80;99.90;;;;;;4990839;28;20477;-72
2023/06/23 02:58:32;;;;;;;1999.90;999.90;;;18.80;99.90;;;;;;4988349;28;20430;-72
2023/06/23 03:01:01;;;;;;;1999.90;999.90;;;18.70;99.90;;;;;;4988127;28;20497;-71
2023/06/23 03:03:33;;;;;;;1999.90;999.90;;;18.80;99.90;;;;;;4990661;28;20446;-71
2023/06/23 03:06:00;;;;;;;1999.90;999.90;;;18.80;99.90;;;;;;4976820;28;20444;-70
2023/06/23 03:08:27;;;;;;;1999.90;999.90;;;18.90;99.90;;;;;;4990336;28;20422;-72
2023/06/23 03:10:54;;;;;;;1999.90;999.90;;;19.00;99.90;;;;;;4990071;28;20460;-70
2023/06/23 03:13:21;;;;;;;1999.90;999.90;;;19.30;99.90;;;;;;4990691;28;20426;-71
2023/06/23 03:15:55;;;;;;;1999.90;999.90;;;19.30;99.90;;;;;;4985101;28;20894;-71
2023/06/23 03:18:29;;;;;;;1999.90;999.90;;;19.30;99.90;;;;;;4975647;28;20501;-71
2023/06/23 03:21:03;;;;;;;1999.90;999.90;;;19.20;99.90;;;;;;4981019;28;20488;-71
2023/06/23 03:23:33;;;;;;;1999.90;999.90;;;19.20;99.90;;;;;;4990721;28;20856;-71
2023/06/23 03:26:02;;;;;;;1999.90;999.90;;;19.10;99.90;;;;;;4990954;28;20485;-70
2023/06/23 03:28:31;;;;;;;1999.90;999.90;;;19.00;99.90;;;;;;4990613;28;20426;-71
2023/06/23 03:31:01;;;;;;;1999.90;999.90;;;19.00;99.90;;;;;;4990021;28;20430;-72
2023/06/23 03:33:32;;;;;;;1999.90;999.90;;;19.00;99.90;;;;;;4982296;28;20516;-70
2023/06/23 03:36:06;;;;;;;1999.90;999.90;;;18.90;99.90;;;;;;4991364;28;20517;-71
2023/06/23 03:38:38;;;;;;;1999.90;999.90;;;19.00;99.90;;;;;;4994450;28;20909;-71
2023/06/23 03:41:10;;;;;;;1999.90;999.90;;;19.00;99.90;;;;;;4993646;28;20836;-70
2023/06/23 03:43:42;;;;;;;1999.90;999.90;;;19.00;99.90;;;;;;4994210;28;20434;-72
2023/06/23 03:46:15;;;;;;;1999.90;999.90;;;19.00;99.90;;;;;;4990073;28;20433;-71
2023/06/23 03:48:43;;;;;;;1999.90;999.90;;;19.00;99.90;;;;;;4991958;28;20438;-71
2023/06/23 03:51:15;;;;;;;1999.90;999.90;;;19.00;99.90;;;;;;4988400;28;20434;-71
2023/06/23 03:53:44;;;;;;;1999.90;999.90;;;19.20;99.90;;;;;;4993826;28;20889;-71
2023/06/23 03:56:13;;;;;;;1999.90;999.90;;;19.00;99.90;;;;;;4994170;28;20481;-72
2023/06/23 03:58:42;;;;;;;1999.90;999.90;;;19.00;99.90;;;;;;4994143;28;20431;-71
2023/06/23 04:01:10;;;;;;;1999.90;999.90;;;19.00;99.90;;;;;;4993354;28;20909;-71
2023/06/23 04:03:38;;;;;;;1999.90;999.90;;;19.00;99.90;;;;;;4986649;28;20442;-72
2023/06/23 04:06:07;;;;;;;1999.90;999.90;;;19.20;99.90;;;;;;4993605;28;20430;-71
2023/06/23 04:08:36;;;;;;;1999.90;999.90;;;19.20;99.90;;;;;;4987644;28;20430;-71
2023/06/23 04:11:06;;;;;;;1999.90;999.90;;;19.30;99.90;;;;;;4992895;28;20485;-72
2023/06/23 04:13:36;;;;;;;1999.90;999.90;;;19.30;99.90;;;;;;4993590;28;20434;-71
2023/06/23 04:16:04;;;;;;;1999.90;999.90;;;19.30;99.90;;;;;;4993762;28;20418;-73
2023/06/23 04:18:34;;;;;;;1999.90;999.90;;;19.30;99.90;;;;;;4990348;28;20484;-74
2023/06/23 04:21:03;;;;;;;1999.90;999.90;;;19.40;99.90;;;;;;4992581;28;20414;-75
2023/06/23 04:23:32;;;;;;;1999.90;999.90;;;19.50;99.90;;;;;;4990569;28;20422;-71
2023/06/23 04:26:01;;;;;;;1999.90;999.90;;;19.40;99.90;;;;;;4990232;28;20426;-69
2023/06/23 04:28:29;;;;;;;1999.90;999.90;;;19.60;99.90;;;;;;4993528;28;20477;-71
2023/06/23 04:30:59;;;;;;;1999.90;999.90;;;19.70;99.90;;;;;;4992816;28;20438;-71
2023/06/23 04:33:26;;;;;;;1999.90;999.90;;;19.80;99.90;;;;;;4985059;28;20434;-72
2023/06/23 04:35:57;;;;;;;1999.90;999.90;;;19.90;99.90;;;;;;4993478;28;20422;-71
2023/06/23 04:38:28;;;;;;;1999.90;999.90;;;20.00;99.90;;;;;;4993075;28;20476;-69
2023/06/23 04:40:58;;;;;;;1999.90;999.90;;;20.00;99.90;;;;;;4986505;28;20419;-71
2023/06/23 04:43:31;;;;;;;1999.90;999.90;;;20.10;99.90;;;;;;4978083;28;20426;-71
2023/06/23 04:46:00;;;;;;;1999.90;999.90;;;20.00;99.90;;;;;;4989321;28;20501;-70
2023/06/23 04:48:34;;;;;;;1999.90;999.90;;;20.20;99.90;;;;;;4992836;28;20477;-71
2023/06/23 04:51:05;;;;;;;1999.90;999.90;;;20.10;99.90;;;;;;4992450;28;20434;-71
2023/06/23 04:53:34;;;;;;;1999.90;999.90;;;20.10;99.90;;;;;;4993125;28;20427;-71
2023/06/23 04:56:04;;;;;;;1999.90;999.90;;;20.10;99.90;;;;;;4992952;28;20414;-71
2023/06/23 04:58:36;;;;;;;1999.90;999.90;;;20.00;99.90;;;;;;4987106;28;20462;-69
2023/06/23 05:01:04;;;;;;;1999.90;999.90;;;20.00;99.90;;;;;;4984228;28;20443;-71
2023/06/23 05:03:32;;;;;;;1999.90;999.90;;;20.10;99.90;;;;;;4992386;28;20426;-70
2023/06/23 05:06:00;;;;;;;1999.90;999.90;;;20.00;99.90;;;;;;4992793;28;20422;-71
2023/06/23 05:08:29;;;;;;;1999.90;999.90;;;20.10;99.90;;;;;;4992813;28;20840;-71
2023/06/23 05:10:59;;;;;;;1999.90;999.90;;;20.20;99.90;;;;;;4991894;28;20441;-70
2023/06/23 05:13:28;;;;;;;1999.90;999.90;;;20.20;99.90;;;;;;4977409;28;20418;-71
2023/06/23 05:15:56;;;;;;;1999.90;999.90;;;20.40;99.90;;;;;;4985429;28;20445;-71
2023/06/23 05:18:24;;;;;;;1999.90;999.90;;;20.40;99.90;;;;;;4992654;28;20422;-71
2023/06/23 05:20:52;;;;;;;1999.90;999.90;;;20.20;99.90;;;;;;4992434;28;20469;-72
2023/06/23 05:23:20;;;;;;;1999.90;999.90;;;20.10;99.90;;;;;;4992273;28;20422;-71
2023/06/23 05:25:49;;;;;;;1999.90;999.90;;;19.90;99.90;;;;;;4991964;28;20967;-72
2023/06/23 05:28:19;;;;;;;1999.90;999.90;;;19.80;99.90;;;;;;4992171;28;20864;-71
2023/06/23 05:30:47;;;;;;;1999.90;999.90;;;19.80;99.90;;;;;;4983122;28;20438;-72
2023/06/23 05:33:17;;;;;;;1999.90;999.90;;;19.80;99.90;;;;;;4984934;28;20426;-70
2023/06/23 05:35:45;;;;;;;1999.90;999.90;;;19.70;99.90;;;;;;4992389;28;20423;-71
2023/06/23 05:38:13;;;;;;;1999.90;999.90;;;19.70;99.90;;;;;;4991915;28;20425;-72
2023/06/23 05:40:40;;;;;;;1999.90;999.90;;;19.80;99.90;;;;;;4991527;28;20967;-71
2023/06/23 05:43:07;;;;;;;1999.90;999.90;;;19.80;99.90;;;;;;4991402;28;20422;-72
2023/06/23 05:45:33;;;;;;;1999.90;999.90;;;19.70;99.90;;;;;;4982900;28;20446;-74
2023/06/23 05:48:05;;;;;;;1999.90;999.90;;;19.80;99.90;;;;;;4991867;28;20421;-72
2023/06/23 05:50:36;;;;;;;1999.90;999.90;;;19.70;99.90;;;;;;4985138;28;20493;-73
2023/06/23 05:53:07;;;;;;;1999.90;999.90;;;20.00;99.90;;;;;;4973705;28;20522;-71
2023/06/23 05:55:38;;;;;;;1999.90;999.90;;;19.70;99.90;;;;;;4976764;28;20496;-71
2023/06/23 05:58:08;;;;;;;1999.90;999.90;;;19.60;99.90;;;;;;4991475;28;20511;-71
2023/06/23 06:00:39;;;;;;;1999.90;999.90;;;19.60;99.90;;;;;;4991407;28;20449;-72
2023/06/23 06:03:10;;;;;;;1999.90;999.90;;;19.50;99.90;;;;;;4976572;28;20445;-70
2023/06/23 06:05:41;;;;;;;1999.90;999.90;;;19.70;99.90;;;;;;4972189;28;20423;-72
2023/06/23 06:08:09;;;;;;;1999.90;999.90;;;19.50;99.90;;;;;;4971947;28;20957;-72
2023/06/23 06:10:39;;;;;;;1999.90;999.90;;;19.40;99.90;;;;;;4971634;28;20434;-72
2023/06/23 06:13:07;;;;;;;1999.90;999.90;;;19.40;99.90;;;;;;4991160;28;20425;-72
2023/06/23 06:15:34;;;;;;;1999.90;999.90;;;19.40;99.90;;;;;;4991567;28;20426;-72
2023/06/23 06:18:06;;;;;;;1999.90;999.90;;;19.40;99.90;;;;;;4991391;28;20416;-72
2023/06/23 06:20:35;;;;;;;1999.90;999.90;;;19.40;99.90;;;;;;4991318;28;20521;-71
2023/06/23 06:23:05;;;;;;;1999.90;999.90;;;19.40;99.90;;;;;;4984226;28;20423;-72
2023/06/23 06:25:34;;;;;;;1999.90;999.90;;;19.50;99.90;;;;;;4982262;28;20442;-72
2023/06/23 06:28:04;;;;;;;1999.90;999.90;;;19.40;99.90;;;;;;4991752;28;20422;-71
2023/06/23 06:30:33;;;;;;;1999.90;999.90;;;19.40;99.90;;;;;;4969926;28;20438;-70
2023/06/23 06:33:01;;;;;;;1999.90;999.90;;;19.50;99.90;;;;;;4977769;28;20442;-70
2023/06/23 06:35:29;;;;;;;1999.90;999.90;;;19.30;99.90;;;;;;4991192;28;20422;-70
2023/06/23 06:37:57;;;;;;;1999.90;999.90;;;19.20;99.90;;;;;;4991075;28;20450;-70
2023/06/23 06:40:27;;;;;;;1999.90;999.90;;;19.30;99.90;;;;;;4979928;28;20440;-70
2023/06/23 06:42:54;;;;;;;1999.90;999.90;;;19.20;99.90;;;;;;4971878;28;20440;-70
2023/06/23 06:45:20;;;;;;;1999.90;999.90;;;19.20;99.90;;;;;;4970592;28;20428;-69
2023/06/23 06:47:49;;;;;;;1999.90;999.90;;;19.20;99.90;;;;;;4970429;28;20974;-69
2023/06/23 06:50:17;;;;;;;1999.90;999.90;;;19.10;99.90;;;;;;4989336;28;20425;-68
2023/06/23 06:52:46;;;;;;;1999.90;999.90;;;19.10;99.90;;;;;;4991175;28;20430;-69
2023/06/23 06:55:21;;;;;;;1999.90;999.90;;;19.20;99.90;;;;;;4991070;28;20481;-68
2023/06/23 06:57:49;;;;;;;1999.90;999.90;;;18.70;99.90;;;;;;4982417;28;20477;-72
2023/06/23 07:00:19;;;;;;;1999.90;999.90;;;18.60;99.90;;;;;;4968464;28;21024;-68
2023/06/23 07:02:46;;;;;;;1999.90;999.90;;;18.50;99.90;;;;;;4962496;28;21001;-69
2023/06/23 07:05:13;;;;;;;1999.90;999.90;;;18.40;99.90;;;;;;4967601;28;20436;-68
2023/06/23 07:07:40;;;;;;;1999.90;999.90;;;18.30;99.90;;;;;;4968002;28;20448;-70
2023/06/23 07:10:07;;;;;;;1999.90;999.90;;;18.30;99.90;;;;;;4972669;28;20538;-69
2023/06/23 07:12:34;;;;;;;1999.90;999.90;;;18.20;99.90;;;;;;4972338;28;20435;-69
2023/06/23 07:15:02;;;;;;;1999.90;999.90;;;18.30;99.90;;;;;;4975001;28;20510;-70
2023/06/23 07:17:29;;;;;;;1999.90;999.90;;;18.20;99.90;;;;;;4968463;28;20436;-67
2023/06/23 07:19:56;;;;;;;1999.90;999.90;;;18.10;99.90;;;;;;4965057;28;20435;-70
2023/06/23 07:22:22;;;;;;;1999.90;999.90;;;18.00;99.90;;;;;;4970637;28;20930;-68
2023/06/23 07:24:49;;;;;;;1999.90;999.90;;;17.90;99.90;;;;;;4972434;28;20440;-68
2023/06/23 07:27:17;;;;;;;1999.90;999.90;;;17.70;99.90;;;;;;4972675;28;20519;-68
2023/06/23 07:29:44;;;;;;;1999.90;999.90;;;17.70;99.90;;;;;;4971382;28;20444;-69
2023/06/23 07:32:14;;;;;;;1999.90;999.90;;;17.70;99.90;;;;;;4970747;28;20496;-69
2023/06/23 07:34:41;;;;;;;1999.90;999.90;;;17.70;99.90;;;;;;4970591;28;20436;-70
2023/06/23 07:37:09;;;;;;;1999.90;999.90;;;17.70;99.90;;;;;;4976718;28;20423;-71
2023/06/23 07:39:35;;;;;;;1999.90;999.90;;;17.60;99.90;;;;;;4980483;28;20509;-68
2023/06/23 07:42:02;;;;;;;1999.90;999.90;;;17.50;99.90;;;;;;4971926;28;20464;-70
2023/06/23 07:44:31;;;;;;;1999.90;999.90;;;17.40;99.90;;;;;;4972467;28;20444;-69
2023/06/23 07:46:58;;;;;;;1999.90;999.90;;;17.40;99.90;;;;;;4970849;28;20439;-69
2023/06/23 07:49:26;;;;;;;1999.90;999.90;;;17.40;99.90;;;;;;4971746;28;20440;-69
2023/06/23 07:51:53;;;;;;;1999.90;999.90;;;17.40;99.90;;;;;;4972326;28;20773;-70
2023/06/23 07:54:20;;;;;;;1999.90;999.90;;;17.40;99.90;;;;;;4971527;28;20431;-69
2023/06/23 07:56:46;;;;;;;1999.90;999.90;;;17.30;99.90;;;;;;4971049;28;20444;-69
2023/06/23 07:59:13;;;;;;;1999.90;999.90;;;17.20;99.90;;;;;;4970884;28;20447;-71
2023/06/23 08:01:40;;;;;;;1999.90;999.90;;;17.20;99.90;;;;;;4970791;28;20835;-69
2023/06/23 08:04:06;;;;;;;1999.90;999.90;;;17.20;99.90;;;;;;4971698;28;20490;-70
2023/06/23 08:06:34;;;;;;;1999.90;999.90;;;17.20;99.90;;;;;;4972053;28;20428;-67
2023/06/23 08:09:01;;;;;;;1999.90;999.90;;;17.20;99.90;;;;;;4965953;28;20447;-69
2023/06/23 08:11:28;;;;;;;1999.90;999.90;;;17.10;99.90;;;;;;4972005;28;20432;-70
2023/06/23 08:13:54;;;;;;;1999.90;999.90;;;17.10;99.90;;;;;;4970307;28;20946;-69
2023/06/23 08:16:21;;;;;;;1999.90;999.90;;;17.00;99.90;;;;;;4971170;28;20818;-69
2023/06/23 08:18:48;;;;;;;1999.90;999.90;;;17.00;99.90;;;;;;4970476;28;20440;-68
2023/06/23 08:21:14;;;;;;;1999.90;999.90;;;16.60;99.90;;;;;;4969891;28;20494;-69
2023/06/23 08:23:45;;;;;;;1999.90;999.90;;;16.40;99.90;;;;;;4969884;28;20808;-69
2023/06/23 08:26:12;;;;;;;1999.90;999.90;;;16.40;99.90;;;;;;4971209;28;20448;-67
2023/06/23 08:28:38;;;;;;;1999.90;999.90;;;16.30;99.90;;;;;;4968715;28;20518;-69
2023/06/23 08:31:05;;;;;;;1999.90;999.90;;;16.20;99.90;;;;;;4968710;28;20447;-68
2023/06/23 08:33:33;;;;;;;1999.90;999.90;;;16.10;99.90;;;;;;4969421;28;20534;-69
2023/06/23 08:36:00;;;;;;;1999.90;999.90;;;16.10;99.90;;;;;;4968107;28;20985;-69
2023/06/23 08:38:26;;;;;;;1999.90;999.90;;;16.00;99.90;;;;;;4970626;28;20470;-68
2023/06/23 08:40:55;;;;;;;1999.90;999.90;;;15.90;99.90;;;;;;4970591;28;20487;-69
2023/06/23 08:43:25;;;;;;;1999.90;999.90;;;15.80;99.90;;;;;;4968880;28;20435;-69
2023/06/23 08:45:55;;;;;;;1999.90;999.90;;;15.70;99.90;;;;;;4970871;28;20523;-70
2023/06/23 08:48:25;;;;;;;1999.90;999.90;;;15.60;99.90;;;;;;4970488;28;20444;-67
2023/06/23 08:50:54;;;;;;;1999.90;999.90;;;15.60;99.90;;;;;;4971241;28;20527;-69
2023/06/23 08:53:22;;;;;;;1999.90;999.90;;;15.60;99.90;;;;;;4969967;28;20443;-71
2023/06/23 08:55:50;;;;;;;1999.90;999.90;;;15.60;99.90;;;;;;4970534;28;20467;-69
2023/06/23 08:58:19;;;;;;;1999.90;999.90;;;15.60;99.90;;;;;;4969298;28;20440;-67
2023/06/23 09:00:45;;;;;;;1999.90;999.90;;;15.60;99.90;;;;;;4969547;28;20475;-69
2023/06/23 09:03:13;;;;;;;1999.90;999.90;;;15.80;99.90;;;;;;4969892;28;20515;-68
2023/06/23 09:05:40;;;;;;;1999.90;999.90;;;15.60;99.90;;;;;;4970083;28;20483;-69
2023/06/23 09:08:07;;;;;;;1999.90;999.90;;;15.60;99.90;;;;;;4969907;28;20472;-67
2023/06/23 09:10:34;;;;;;;1999.90;999.90;;;15.50;99.90;;;;;;4970469;28;20874;-71
2023/06/23 09:13:17;;;;;;;1999.90;999.90;;;15.50;99.90;;;;;;4967341;28;20444;-69
2023/06/23 09:15:47;;;;;;;1999.90;999.90;;;15.40;99.90;;;;;;4977721;28;20484;-68
2023/06/23 09:18:14;;;;;;;1999.90;999.90;;;15.40;99.90;;;;;;4970195;28;21372;-70
2023/06/23 09:20:43;;;;;;;1999.90;999.90;;;15.40;99.90;;;;;;4969640;28;20479;-69
2023/06/23 09:23:14;;;;;;;1999.90;999.90;;;15.70;99.90;;;;;;4964312;28;20431;-69
2023/06/23 09:25:42;;;;;;;1999.90;999.90;;;15.40;99.90;;;;;;4966426;28;20442;-69
2023/06/23 09:28:21;;;;;;;1999.90;999.90;;;15.40;99.90;;;;;;4969129;28;20486;-70
2023/06/23 09:30:50;;;;;;;1999.90;999.90;;;15.40;99.90;;;;;;4975431;28;20481;-69
2023/06/23 09:33:18;;;;;;;1999.90;999.90;;;15.40;99.90;;;;;;4974844;28;20487;-67
2023/06/23 09:35:49;;;;;;;1999.90;999.90;;;15.40;99.90;;;;;;4970662;28;20519;-71
2023/06/23 09:38:18;;;;;;;1999.90;999.90;;;15.40;99.90;;;;;;4971078;28;20911;-68
2023/06/23 09:40:45;;;;;;;1999.90;999.90;;;15.40;99.90;;;;;;4963942;28;20428;-69
2023/06/23 09:43:14;;;;;;;1999.90;999.90;;;15.40;99.90;;;;;;4970354;28;20440;-69
2023/06/23 09:45:41;;;;;;;1999.90;999.90;;;15.40;99.90;;;;;;4974796;28;20430;-66
2023/06/23 09:48:16;;;;;;;1999.90;999.90;;;15.40;99.90;;;;;;4982503;28;20423;-71
2023/06/23 09:50:43;;;;;;;1999.90;999.90;;;15.40;99.90;;;;;;4990279;28;20505;-70
2023/06/23 09:53:10;;;;;;;1999.90;999.90;;;15.40;99.90;;;;;;4987398;28;20422;-71
2023/06/23 09:55:37;;;;;;;1999.90;999.90;;;15.30;99.90;;;;;;4970632;28;20556;-71
2023/06/23 09:58:08;;;;;;;1999.90;999.90;;;15.30;99.90;;;;;;4974878;28;20422;-71
2023/06/23 10:00:35;;;;;;;1999.90;999.90;;;15.30;99.90;;;;;;4966427;28;20462;-71
2023/06/23 10:03:02;;;;;;;1999.90;999.90;;;15.30;99.90;;;;;;4967033;28;20443;-72
2023/06/23 10:05:35;;;;;;;1999.90;999.90;;;15.30;99.90;;;;;;4970565;28;20436;-71
2023/06/23 10:08:09;;;;;;;1999.90;999.90;;;15.30;99.90;;;;;;4970960;28;20420;-72
2023/06/23 10:10:42;;;;;;;1999.90;999.90;;;15.20;99.90;;;;;;4970742;28;20420;-72
2023/06/23 10:13:10;;;;;;;1999.90;999.90;;;15.20;99.90;;;;;;4970307;28;20420;-73
2023/06/23 10:15:36;;;;;;;1999.90;999.90;;;15.30;99.90;;;;;;4967514;28;20481;-69
2023/06/23 10:18:04;;;;;;;1999.90;999.90;;;15.40;99.90;;;;;;4970387;28;20487;-69
2023/06/23 10:20:31;;;;;;;1999.90;999.90;;;15.40;99.90;;;;;;4970041;28;20895;-69
2023/06/23 10:23:02;;;;;;;1999.90;999.90;;;15.40;99.90;;;;;;4968357;28;22284;-69
2023/06/23 10:25:29;;;;;;;1999.90;999.90;;;15.50;99.90;;;;;;4971539;28;20483;-69
2023/06/23 10:27:58;;;;;;;1999.90;999.90;;;15.40;99.90;;;;;;4969136;28;20486;-69
2023/06/23 10:30:28;;;;;;;1999.90;999.90;;;15.50;99.90;;;;;;4969801;28;20515;-69
2023/06/23 10:32:57;;;;;;;1999.90;999.90;;;15.50;99.90;;;;;;4969866;28;21046;-69
2023/06/23 10:35:25;;;;;;;1999.90;999.90;;;15.60;99.90;;;;;;4969386;28;20927;-69
2023/06/23 10:38:04;;;;;;;1999.90;999.90;;;15.60;99.90;;;;;;4969417;28;20472;-67
2023/06/23 10:40:37;;;;;;;1999.90;999.90;;;15.60;99.90;;;;;;4969728;28;20538;-69
2023/06/23 10:43:05;;;;;;;1999.90;999.90;;;15.60;99.90;;;;;;4970123;28;20432;-69
2023/06/23 10:45:32;;;;;;;1999.90;999.90;;;15.60;99.90;;;;;;4969044;28;20435;-69
2023/06/23 10:47:59;;;;;;;1999.90;999.90;;;15.60;99.90;;;;;;4969950;28;20689;-69
2023/06/23 10:50:29;;;;;;;1999.90;999.90;;;15.60;99.90;;;;;;4970109;28;20795;-69
2023/06/23 10:52:57;;;;;;;1999.90;999.90;;;15.60;99.90;;;;;;4970228;28;20428;-69
2023/06/23 10:55:37;;;;;;;1999.90;999.90;;;15.70;99.90;;;;;;4970155;28;20431;-69
2023/06/23 10:58:12;;;;;;;1999.90;999.90;;;15.70;99.90;;;;;;4969892;28;20428;-71
2023/06/23 11:00:39;;;;;;;1999.90;999.90;;;15.70;99.90;;;;;;4968873;28;20432;-69
2023/06/23 11:03:24;;;;;;;1999.90;999.90;;;15.80;99.90;;;;;;4963301;28;20487;-70
2023/06/23 11:05:54;;;;;;;1999.90;999.90;;;15.70;99.90;;;;;;4967052;28;20444;-69
2023/06/23 11:08:28;;;;;;;1999.90;999.90;;;15.70;99.90;;;;;;4968976;28;20518;-67
2023/06/23 11:11:00;;;;;;;1999.90;999.90;;;15.80;99.90;;;;;;4969229;28;20440;-69
2023/06/23 11:13:41;;;;;;;1999.90;999.90;;;15.80;99.90;;;;;;4967426;28;20436;-66
2023/06/23 11:16:14;;;;;;;1999.90;999.90;;;15.80;99.90;;;;;;4964703;28;20946;-69
2023/06/23 11:18:49;;;;;;;1999.90;999.90;;;15.80;99.90;;;;;;4969289;28;21592;-69
2023/06/23 11:21:17;;;;;;;1999.90;999.90;;;15.80;99.90;;;;;;4964895;28;20482;-69
2023/06/23 11:24:09;;;;;;;1999.90;999.90;;;15.90;99.90;;;;;;4968027;28;20439;-68
2023/06/23 11:26:37;;;;;;;1999.90;999.90;;;15.90;99.90;;;;;;4968445;28;20442;-70
2023/06/23 11:29:12;;;;;;;1999.90;999.90;;;15.90;99.90;;;;;;4969873;28;20444;-69
2023/06/23 11:32:06;;;;;;;1999.90;999.90;;;16.10;99.90;;;;;;4969023;28;20475;-69
2023/06/23 11:34:49;;;;;;;1999.90;999.90;;;15.90;99.90;;;;;;4964352;28;20511;-68
2023/06/23 11:37:16;;;;;;;1999.90;999.90;;;15.90;99.90;;;;;;4969777;28;20431;-68
2023/06/23 11:39:43;;;;;;;1999.90;999.90;;;15.90;99.90;;;;;;4968542;28;20439;-67
2023/06/23 11:42:11;;;;;;;1999.90;999.90;;;15.80;99.90;;;;;;4964029;28;20443;-69
2023/06/23 11:44:38;;;;;;;1999.90;999.90;;;16.00;99.90;;;;;;4966874;28;20787;-66
2023/06/23 11:47:05;;;;;;;1999.90;999.90;;;15.80;99.90;;;;;;4969750;28;20487;-69
2023/06/23 11:49:32;;;;;;;1999.90;999.90;;;15.80;99.90;;;;;;4968319;28;20851;-69
2023/06/23 11:52:03;;;;;;;1999.90;999.90;;;15.90;99.90;;;;;;4968242;28;20523;-69
2023/06/23 11:54:32;;;;;;;1999.90;999.90;;;15.80;99.90;;;;;;4968790;28;20439;-70
2023/06/23 11:56:59;;;;;;;1999.90;999.90;;;15.80;99.90;;;;;;4971554;28;20560;-69
2023/06/23 11:59:27;;;;;;;1999.90;999.90;;;15.80;99.90;;;;;;4972343;28;20439;-70
2023/06/23 12:01:54;;;;;;;1999.90;999.90;;;15.80;99.90;;;;;;4972414;28;20886;-66
2023/06/23 12:04:22;;;;;;;1999.90;999.90;;;15.80;99.90;;;;;;4972757;28;20435;-69
2023/06/23 12:06:51;;;;;;;1999.90;999.90;;;15.80;99.90;;;;;;4972312;28;20436;-69
2023/06/23 12:09:20;;;;;;;1999.90;999.90;;;15.90;99.90;;;;;;4973021;28;20482;-69